sensor_id;sensor_type;location;lat;lon;timestamp;P1;durP1;ratioP1;P2;durP2;ratioP2
77524;SDS011;66638;50.050;21.124;2023-03-15T00:00:59;10.80;;;4.70;;
77524;SDS011;66638;50.050;21.124;2023-03-15T00:03:46;7.00;;;3.80;;
77524;SDS011;66638;50.050;21.124;2023-03-15T00:06:33;6.60;;;3.50;;
77524;SDS011;66638;50.050;21.124;2023-03-15T00:09:21;5.90;;;3.10;;
77524;SDS011;66638;50.050;21.124;2023-03-15T00:12:10;6.40;;;3.60;;
77524;SDS011;66638;50.050;21.124;2023-03-15T00:14:57;7.30;;;3.80;;
77524;SDS011;66638;50.050;21.124;2023-03-15T00:17:44;5.90;;;3.50;;
77524;SDS011;66638;50.050;21.124;2023-03-15T00:20:32;5.60;;;2.80;;
77524;SDS011;66638;50.050;21.124;2023-03-15T00:23:19;6.60;;;2.80;;
77524;SDS011;66638;50.050;21.124;2023-03-15T00:26:06;7.40;;;3.40;;
77524;SDS011;66638;50.050;21.124;2023-03-15T00:28:53;5.20;;;2.60;;
77524;SDS011;66638;50.050;21.124;2023-03-15T00:31:41;5.20;;;2.70;;
77524;SDS011;66638;50.050;21.124;2023-03-15T00:34:28;4.90;;;2.70;;
77524;SDS011;66638;50.050;21.124;2023-03-15T00:37:15;5.10;;;2.50;;
77524;SDS011;66638;50.050;21.124;2023-03-15T00:40:03;5.00;;;2.10;;
77524;SDS011;66638;50.050;21.124;2023-03-15T00:42:54;5.30;;;2.40;;
77524;SDS011;66638;50.050;21.124;2023-03-15T00:45:43;3.90;;;2.00;;
77524;SDS011;66638;50.050;21.124;2023-03-15T00:48:31;4.00;;;2.00;;
77524;SDS011;66638;50.050;21.124;2023-03-15T00:51:20;3.50;;;1.80;;
77524;SDS011;66638;50.050;21.124;2023-03-15T00:54:08;4.90;;;2.50;;
77524;SDS011;66638;50.050;21.124;2023-03-15T00:56:59;6.10;;;3.20;;
77524;SDS011;66638;50.050;21.124;2023-03-15T00:59:47;7.60;;;3.90;;
77524;SDS011;66638;50.050;21.124;2023-03-15T01:02:34;6.40;;;4.50;;
77524;SDS011;66638;50.050;21.124;2023-03-15T01:05:23;5.00;;;3.40;;
77524;SDS011;66638;50.050;21.124;2023-03-15T01:08:12;5.60;;;3.30;;
77524;SDS011;66638;50.050;21.124;2023-03-15T01:11:03;4.30;;;3.10;;
77524;SDS011;66638;50.050;21.124;2023-03-15T01:13:52;4.80;;;2.70;;
77524;SDS011;66638;50.050;21.124;2023-03-15T01:16:40;4.40;;;2.90;;
77524;SDS011;66638;50.050;21.124;2023-03-15T01:19:29;4.90;;;3.90;;
77524;SDS011;66638;50.050;21.124;2023-03-15T01:22:17;6.00;;;4.50;;
77524;SDS011;66638;50.050;21.124;2023-03-15T01:25:05;7.00;;;4.70;;
77524;SDS011;66638;50.050;21.124;2023-03-15T01:27:53;9.40;;;5.60;;
77524;SDS011;66638;50.050;21.124;2023-03-15T01:30:40;8.10;;;5.20;;
77524;SDS011;66638;50.050;21.124;2023-03-15T01:33:35;7.70;;;5.10;;
77524;SDS011;66638;50.050;21.124;2023-03-15T01:36:22;9.10;;;5.40;;
77524;SDS011;66638;50.050;21.124;2023-03-15T01:39:10;8.40;;;5.80;;
77524;SDS011;66638;50.050;21.124;2023-03-15T01:42:02;6.50;;;5.40;;
77524;SDS011;66638;50.050;21.124;2023-03-15T01:44:52;6.70;;;5.50;;
77524;SDS011;66638;50.050;21.124;2023-03-15T01:47:45;7.40;;;5.40;;
77524;SDS011;66638;50.050;21.124;2023-03-15T01:50:33;8.50;;;5.10;;
77524;SDS011;66638;50.050;21.124;2023-03-15T01:53:21;6.00;;;4.20;;
77524;SDS011;66638;50.050;21.124;2023-03-15T01:56:10;4.80;;;2.80;;
77524;SDS011;66638;50.050;21.124;2023-03-15T01:58:58;2.70;;;2.10;;
77524;SDS011;66638;50.050;21.124;2023-03-15T02:01:47;2.50;;;1.70;;
77524;SDS011;66638;50.050;21.124;2023-03-15T02:04:35;2.50;;;1.80;;
77524;SDS011;66638;50.050;21.124;2023-03-15T02:07:25;2.50;;;1.70;;
77524;SDS011;66638;50.050;21.124;2023-03-15T02:10:17;2.60;;;1.80;;
77524;SDS011;66638;50.050;21.124;2023-03-15T02:13:14;2.10;;;1.50;;
77524;SDS011;66638;50.050;21.124;2023-03-15T02:16:04;3.10;;;1.80;;
77524;SDS011;66638;50.050;21.124;2023-03-15T02:18:57;3.10;;;2.10;;
77524;SDS011;66638;50.050;21.124;2023-03-15T02:21:47;3.40;;;2.30;;
77524;SDS011;66638;50.050;21.124;2023-03-15T02:24:45;3.80;;;2.40;;
77524;SDS011;66638;50.050;21.124;2023-03-15T02:27:38;3.20;;;2.60;;
77524;SDS011;66638;50.050;21.124;2023-03-15T02:30:25;2.80;;;2.30;;
77524;SDS011;66638;50.050;21.124;2023-03-15T02:36:28;2.50;;;2.20;;
77524;SDS011;66638;50.050;21.124;2023-03-15T02:39:19;2.70;;;2.20;;
77524;SDS011;66638;50.050;21.124;2023-03-15T02:42:07;5.80;;;2.10;;
77524;SDS011;66638;50.050;21.124;2023-03-15T02:44:54;2.40;;;2.10;;
77524;SDS011;66638;50.050;21.124;2023-03-15T02:47:42;3.10;;;2.40;;
77524;SDS011;66638;50.050;21.124;2023-03-15T02:50:30;4.00;;;2.20;;
77524;SDS011;66638;50.050;21.124;2023-03-15T02:53:17;3.80;;;2.30;;
77524;SDS011;66638;50.050;21.124;2023-03-15T02:56:05;4.30;;;2.70;;
77524;SDS011;66638;50.050;21.124;2023-03-15T02:58:52;2.70;;;1.90;;
77524;SDS011;66638;50.050;21.124;2023-03-15T03:01:39;3.30;;;2.00;;
77524;SDS011;66638;50.050;21.124;2023-03-15T03:04:27;3.40;;;2.30;;
77524;SDS011;66638;50.050;21.124;2023-03-15T03:07:14;3.30;;;2.00;;
77524;SDS011;66638;50.050;21.124;2023-03-15T03:10:07;3.50;;;1.90;;
77524;SDS011;66638;50.050;21.124;2023-03-15T03:13:04;3.60;;;2.10;;
77524;SDS011;66638;50.050;21.124;2023-03-15T03:15:54;3.20;;;2.20;;
77524;SDS011;66638;50.050;21.124;2023-03-15T03:18:47;3.80;;;2.00;;
77524;SDS011;66638;50.050;21.124;2023-03-15T03:21:34;2.70;;;1.90;;
77524;SDS011;66638;50.050;21.124;2023-03-15T03:24:21;3.10;;;2.10;;
77524;SDS011;66638;50.050;21.124;2023-03-15T03:27:13;3.20;;;2.20;;
77524;SDS011;66638;50.050;21.124;2023-03-15T03:30:02;2.90;;;2.00;;
77524;SDS011;66638;50.050;21.124;2023-03-15T03:32:52;2.90;;;2.00;;
77524;SDS011;66638;50.050;21.124;2023-03-15T03:35:40;2.70;;;2.30;;
77524;SDS011;66638;50.050;21.124;2023-03-15T03:38:28;3.40;;;2.70;;
77524;SDS011;66638;50.050;21.124;2023-03-15T03:41:16;3.50;;;2.20;;
77524;SDS011;66638;50.050;21.124;2023-03-15T03:44:04;3.80;;;2.30;;
77524;SDS011;66638;50.050;21.124;2023-03-15T03:46:51;4.00;;;2.50;;
77524;SDS011;66638;50.050;21.124;2023-03-15T03:49:38;3.70;;;2.60;;
77524;SDS011;66638;50.050;21.124;2023-03-15T03:55:15;2.90;;;2.30;;
77524;SDS011;66638;50.050;21.124;2023-03-15T03:58:02;3.90;;;2.70;;
77524;SDS011;66638;50.050;21.124;2023-03-15T04:00:58;3.90;;;2.30;;
77524;SDS011;66638;50.050;21.124;2023-03-15T04:03:47;3.60;;;2.20;;
77524;SDS011;66638;50.050;21.124;2023-03-15T04:06:39;2.80;;;2.20;;
77524;SDS011;66638;50.050;21.124;2023-03-15T04:09:31;3.70;;;2.10;;
77524;SDS011;66638;50.050;21.124;2023-03-15T04:12:24;3.70;;;2.70;;
77524;SDS011;66638;50.050;21.124;2023-03-15T04:15:14;3.60;;;2.70;;
77524;SDS011;66638;50.050;21.124;2023-03-15T04:18:01;3.40;;;2.70;;
77524;SDS011;66638;50.050;21.124;2023-03-15T04:20:56;4.10;;;3.10;;
77524;SDS011;66638;50.050;21.124;2023-03-15T04:23:45;3.90;;;2.70;;
77524;SDS011;66638;50.050;21.124;2023-03-15T04:26:51;4.30;;;2.90;;
77524;SDS011;66638;50.050;21.124;2023-03-15T04:29:59;4.40;;;3.10;;
77524;SDS011;66638;50.050;21.124;2023-03-15T04:32:59;4.20;;;2.80;;
77524;SDS011;66638;50.050;21.124;2023-03-15T04:36:06;5.70;;;3.00;;
77524;SDS011;66638;50.050;21.124;2023-03-15T04:39:06;4.30;;;3.10;;
77524;SDS011;66638;50.050;21.124;2023-03-15T04:42:13;7.90;;;3.80;;
77524;SDS011;66638;50.050;21.124;2023-03-15T04:45:21;5.10;;;3.60;;
77524;SDS011;66638;50.050;21.124;2023-03-15T04:48:24;5.30;;;3.20;;
77524;SDS011;66638;50.050;21.124;2023-03-15T04:51:29;6.50;;;3.30;;
77524;SDS011;66638;50.050;21.124;2023-03-15T04:54:36;4.80;;;3.10;;
77524;SDS011;66638;50.050;21.124;2023-03-15T04:57:45;5.50;;;4.00;;
77524;SDS011;66638;50.050;21.124;2023-03-15T05:00:52;6.00;;;4.00;;
77524;SDS011;66638;50.050;21.124;2023-03-15T05:03:47;6.40;;;4.10;;
77524;SDS011;66638;50.050;21.124;2023-03-15T05:06:54;8.00;;;4.90;;
77524;SDS011;66638;50.050;21.124;2023-03-15T05:10:00;8.10;;;4.70;;
77524;SDS011;66638;50.050;21.124;2023-03-15T05:13:07;7.40;;;4.50;;
77524;SDS011;66638;50.050;21.124;2023-03-15T05:16:14;6.40;;;4.80;;
77524;SDS011;66638;50.050;21.124;2023-03-15T05:19:10;9.00;;;5.00;;
77524;SDS011;66638;50.050;21.124;2023-03-15T05:22:17;7.80;;;5.30;;
77524;SDS011;66638;50.050;21.124;2023-03-15T05:25:24;10.10;;;5.80;;
77524;SDS011;66638;50.050;21.124;2023-03-15T05:28:22;9.10;;;5.70;;
77524;SDS011;66638;50.050;21.124;2023-03-15T05:31:30;9.00;;;5.40;;
77524;SDS011;66638;50.050;21.124;2023-03-15T05:34:32;6.40;;;4.20;;
77524;SDS011;66638;50.050;21.124;2023-03-15T05:37:39;12.30;;;5.90;;
77524;SDS011;66638;50.050;21.124;2023-03-15T05:40:44;11.50;;;5.20;;
77524;SDS011;66638;50.050;21.124;2023-03-15T05:43:51;9.10;;;5.40;;
77524;SDS011;66638;50.050;21.124;2023-03-15T05:46:54;11.70;;;5.90;;
77524;SDS011;66638;50.050;21.124;2023-03-15T05:49:53;10.40;;;6.70;;
77524;SDS011;66638;50.050;21.124;2023-03-15T05:52:58;12.20;;;6.30;;
77524;SDS011;66638;50.050;21.124;2023-03-15T05:55:53;14.00;;;6.70;;
77524;SDS011;66638;50.050;21.124;2023-03-15T05:58:59;11.20;;;5.30;;
77524;SDS011;66638;50.050;21.124;2023-03-15T06:02:08;11.50;;;6.20;;
77524;SDS011;66638;50.050;21.124;2023-03-15T06:05:05;12.40;;;5.80;;
77524;SDS011;66638;50.050;21.124;2023-03-15T06:07:52;13.10;;;5.80;;
77524;SDS011;66638;50.050;21.124;2023-03-15T06:10:40;14.80;;;6.60;;
77524;SDS011;66638;50.050;21.124;2023-03-15T06:13:28;14.40;;;7.10;;
77524;SDS011;66638;50.050;21.124;2023-03-15T06:16:17;10.60;;;5.40;;
77524;SDS011;66638;50.050;21.124;2023-03-15T06:19:06;12.70;;;5.40;;
77524;SDS011;66638;50.050;21.124;2023-03-15T06:21:54;11.80;;;6.30;;
77524;SDS011;66638;50.050;21.124;2023-03-15T06:24:45;12.70;;;7.70;;
77524;SDS011;66638;50.050;21.124;2023-03-15T06:27:33;10.80;;;6.20;;
77524;SDS011;66638;50.050;21.124;2023-03-15T06:30:21;9.10;;;6.10;;
77524;SDS011;66638;50.050;21.124;2023-03-15T06:33:10;14.30;;;7.60;;
77524;SDS011;66638;50.050;21.124;2023-03-15T06:35:57;10.40;;;6.50;;
77524;SDS011;66638;50.050;21.124;2023-03-15T06:41:32;13.80;;;6.30;;
77524;SDS011;66638;50.050;21.124;2023-03-15T06:47:15;10.20;;;5.10;;
77524;SDS011;66638;50.050;21.124;2023-03-15T06:50:03;11.90;;;5.50;;
77524;SDS011;66638;50.050;21.124;2023-03-15T06:52:51;11.10;;;5.20;;
77524;SDS011;66638;50.050;21.124;2023-03-15T06:55:39;22.20;;;10.90;;
77524;SDS011;66638;50.050;21.124;2023-03-15T07:01:14;11.50;;;5.10;;
77524;SDS011;66638;50.050;21.124;2023-03-15T07:04:02;20.90;;;15.00;;
77524;SDS011;66638;50.050;21.124;2023-03-15T07:09:36;18.60;;;12.70;;
77524;SDS011;66638;50.050;21.124;2023-03-15T07:12:24;41.80;;;32.80;;
77524;SDS011;66638;50.050;21.124;2023-03-15T07:15:11;28.60;;;20.90;;
77524;SDS011;66638;50.050;21.124;2023-03-15T07:17:59;207.70;;;132.50;;
77524;SDS011;66638;50.050;21.124;2023-03-15T07:20:46;134.60;;;85.90;;
77524;SDS011;66638;50.050;21.124;2023-03-15T07:23:41;107.20;;;74.50;;
77524;SDS011;66638;50.050;21.124;2023-03-15T07:29:15;67.30;;;44.90;;
77524;SDS011;66638;50.050;21.124;2023-03-15T07:32:04;23.60;;;14.70;;
77524;SDS011;66638;50.050;21.124;2023-03-15T07:34:51;51.90;;;24.20;;
77524;SDS011;66638;50.050;21.124;2023-03-15T07:37:40;366.70;;;139.00;;
77524;SDS011;66638;50.050;21.124;2023-03-15T07:43:15;333.40;;;145.70;;
77524;SDS011;66638;50.050;21.124;2023-03-15T07:46:03;94.60;;;43.40;;
77524;SDS011;66638;50.050;21.124;2023-03-15T07:48:50;93.10;;;44.00;;
77524;SDS011;66638;50.050;21.124;2023-03-15T07:54:24;20.80;;;12.30;;
77524;SDS011;66638;50.050;21.124;2023-03-15T07:57:11;52.80;;;27.30;;
77524;SDS011;66638;50.050;21.124;2023-03-15T07:59:58;51.50;;;25.90;;
77524;SDS011;66638;50.050;21.124;2023-03-15T08:02:46;14.90;;;7.30;;
77524;SDS011;66638;50.050;21.124;2023-03-15T08:05:34;48.70;;;24.50;;
77524;SDS011;66638;50.050;21.124;2023-03-15T08:08:21;34.70;;;16.60;;
77524;SDS011;66638;50.050;21.124;2023-03-15T08:11:09;31.00;;;15.80;;
77524;SDS011;66638;50.050;21.124;2023-03-15T08:13:56;134.40;;;61.20;;
77524;SDS011;66638;50.050;21.124;2023-03-15T08:20:51;66.30;;;24.30;;
77524;SDS011;66638;50.050;21.124;2023-03-15T08:23:38;231.10;;;86.10;;
77524;SDS011;66638;50.050;21.124;2023-03-15T08:26:26;180.80;;;69.70;;
77524;SDS011;66638;50.050;21.124;2023-03-15T08:29:14;65.60;;;27.00;;
77524;SDS011;66638;50.050;21.124;2023-03-15T08:32:03;144.70;;;67.20;;
77524;SDS011;66638;50.050;21.124;2023-03-15T08:34:52;98.60;;;53.70;;
77524;SDS011;66638;50.050;21.124;2023-03-15T08:37:42;24.70;;;14.40;;
77524;SDS011;66638;50.050;21.124;2023-03-15T08:40:34;25.40;;;13.30;;
77524;SDS011;66638;50.050;21.124;2023-03-15T08:43:22;25.90;;;15.00;;
77524;SDS011;66638;50.050;21.124;2023-03-15T08:46:10;23.40;;;11.00;;
77524;SDS011;66638;50.050;21.124;2023-03-15T08:48:58;23.40;;;8.70;;
77524;SDS011;66638;50.050;21.124;2023-03-15T08:51:46;18.40;;;8.30;;
77524;SDS011;66638;50.050;21.124;2023-03-15T08:57:25;17.40;;;8.90;;
77524;SDS011;66638;50.050;21.124;2023-03-15T09:00:14;22.60;;;10.80;;
77524;SDS011;66638;50.050;21.124;2023-03-15T09:03:12;21.60;;;8.50;;
77524;SDS011;66638;50.050;21.124;2023-03-15T09:06:00;25.90;;;10.80;;
77524;SDS011;66638;50.050;21.124;2023-03-15T09:08:48;15.40;;;6.00;;
77524;SDS011;66638;50.050;21.124;2023-03-15T09:11:40;10.40;;;5.70;;
77524;SDS011;66638;50.050;21.124;2023-03-15T09:17:21;15.10;;;7.00;;
77524;SDS011;66638;50.050;21.124;2023-03-15T09:20:10;18.00;;;10.60;;
77524;SDS011;66638;50.050;21.124;2023-03-15T09:23:01;9.70;;;5.60;;
77524;SDS011;66638;50.050;21.124;2023-03-15T09:25:50;13.20;;;6.40;;
77524;SDS011;66638;50.050;21.124;2023-03-15T09:28:37;10.50;;;5.50;;
77524;SDS011;66638;50.050;21.124;2023-03-15T09:31:25;12.50;;;5.90;;
77524;SDS011;66638;50.050;21.124;2023-03-15T09:34:16;12.90;;;6.20;;
77524;SDS011;66638;50.050;21.124;2023-03-15T09:37:03;13.40;;;6.70;;
77524;SDS011;66638;50.050;21.124;2023-03-15T09:39:51;10.10;;;5.90;;
77524;SDS011;66638;50.050;21.124;2023-03-15T09:46:07;12.50;;;5.20;;
77524;SDS011;66638;50.050;21.124;2023-03-15T09:49:10;7.80;;;5.00;;
77524;SDS011;66638;50.050;21.124;2023-03-15T09:52:12;9.10;;;5.30;;
77524;SDS011;66638;50.050;21.124;2023-03-15T10:20:16;12.20;;;4.90;;
77524;SDS011;66638;50.050;21.124;2023-03-15T10:26:25;12.10;;;5.90;;
77524;SDS011;66638;50.050;21.124;2023-03-15T10:29:14;9.70;;;4.30;;
77524;SDS011;66638;50.050;21.124;2023-03-15T10:32:02;12.40;;;6.10;;
77524;SDS011;66638;50.050;21.124;2023-03-15T10:34:50;11.00;;;5.00;;
77524;SDS011;66638;50.050;21.124;2023-03-15T10:37:37;10.00;;;4.90;;
77524;SDS011;66638;50.050;21.124;2023-03-15T10:43:32;15.10;;;7.60;;
77524;SDS011;66638;50.050;21.124;2023-03-15T10:46:21;21.20;;;7.50;;
77524;SDS011;66638;50.050;21.124;2023-03-15T10:49:12;17.70;;;6.20;;
77524;SDS011;66638;50.050;21.124;2023-03-15T10:51:59;10.00;;;5.00;;
77524;SDS011;66638;50.050;21.124;2023-03-15T10:54:45;11.00;;;4.80;;
77524;SDS011;66638;50.050;21.124;2023-03-15T10:57:32;9.40;;;4.40;;
77524;SDS011;66638;50.050;21.124;2023-03-15T11:00:25;5.80;;;3.50;;
77524;SDS011;66638;50.050;21.124;2023-03-15T11:03:18;6.50;;;3.70;;
77524;SDS011;66638;50.050;21.124;2023-03-15T11:09:17;9.60;;;4.10;;
77524;SDS011;66638;50.050;21.124;2023-03-15T11:12:08;8.20;;;3.20;;
77524;SDS011;66638;50.050;21.124;2023-03-15T11:15:02;19.70;;;7.20;;
77524;SDS011;66638;50.050;21.124;2023-03-15T11:20:38;7.80;;;3.10;;
77524;SDS011;66638;50.050;21.124;2023-03-15T11:23:27;9.30;;;4.50;;
77524;SDS011;66638;50.050;21.124;2023-03-15T11:26:18;12.60;;;4.00;;
77524;SDS011;66638;50.050;21.124;2023-03-15T11:29:21;10.90;;;3.60;;
77524;SDS011;66638;50.050;21.124;2023-03-15T11:32:20;9.30;;;3.70;;
77524;SDS011;66638;50.050;21.124;2023-03-15T11:35:16;5.70;;;3.40;;
77524;SDS011;66638;50.050;21.124;2023-03-15T11:38:29;6.30;;;4.00;;
77524;SDS011;66638;50.050;21.124;2023-03-15T11:41:26;8.50;;;3.30;;
77524;SDS011;66638;50.050;21.124;2023-03-15T11:47:42;6.20;;;3.40;;
77524;SDS011;66638;50.050;21.124;2023-03-15T11:50:44;7.00;;;3.30;;
77524;SDS011;66638;50.050;21.124;2023-03-15T11:53:32;5.10;;;3.40;;
77524;SDS011;66638;50.050;21.124;2023-03-15T11:56:27;7.70;;;4.70;;
77524;SDS011;66638;50.050;21.124;2023-03-15T11:59:47;9.40;;;3.50;;
77524;SDS011;66638;50.050;21.124;2023-03-15T12:02:34;15.00;;;5.10;;
77524;SDS011;66638;50.050;21.124;2023-03-15T12:08:41;8.60;;;4.10;;
77524;SDS011;66638;50.050;21.124;2023-03-15T12:11:36;19.50;;;9.50;;
77524;SDS011;66638;50.050;21.124;2023-03-15T12:14:27;7.80;;;3.10;;
77524;SDS011;66638;50.050;21.124;2023-03-15T12:23:54;8.30;;;3.90;;
77524;SDS011;66638;50.050;21.124;2023-03-15T12:26:49;6.60;;;3.20;;
77524;SDS011;66638;50.050;21.124;2023-03-15T12:30:03;15.30;;;4.40;;
77524;SDS011;66638;50.050;21.124;2023-03-15T12:32:52;9.40;;;3.70;;
77524;SDS011;66638;50.050;21.124;2023-03-15T12:35:39;5.20;;;3.20;;
77524;SDS011;66638;50.050;21.124;2023-03-15T12:38:30;7.60;;;2.90;;
77524;SDS011;66638;50.050;21.124;2023-03-15T12:44:39;7.50;;;3.30;;
77524;SDS011;66638;50.050;21.124;2023-03-15T12:47:26;6.00;;;2.90;;
77524;SDS011;66638;50.050;21.124;2023-03-15T12:50:36;6.10;;;3.30;;
77524;SDS011;66638;50.050;21.124;2023-03-15T12:53:39;5.50;;;2.90;;
77524;SDS011;66638;50.050;21.124;2023-03-15T12:56:32;5.40;;;2.80;;
77524;SDS011;66638;50.050;21.124;2023-03-15T12:59:23;8.50;;;3.30;;
77524;SDS011;66638;50.050;21.124;2023-03-15T13:05:12;13.90;;;6.90;;
77524;SDS011;66638;50.050;21.124;2023-03-15T13:08:07;7.40;;;3.90;;
77524;SDS011;66638;50.050;21.124;2023-03-15T13:14:20;11.40;;;4.10;;
77524;SDS011;66638;50.050;21.124;2023-03-15T13:17:25;6.60;;;2.90;;
77524;SDS011;66638;50.050;21.124;2023-03-15T13:20:39;6.20;;;2.70;;
77524;SDS011;66638;50.050;21.124;2023-03-15T13:23:28;7.00;;;2.70;;
77524;SDS011;66638;50.050;21.124;2023-03-15T13:29:30;6.90;;;3.20;;
77524;SDS011;66638;50.050;21.124;2023-03-15T13:32:18;5.70;;;2.70;;
77524;SDS011;66638;50.050;21.124;2023-03-15T13:35:10;8.00;;;3.80;;
77524;SDS011;66638;50.050;21.124;2023-03-15T13:38:06;5.90;;;2.60;;
77524;SDS011;66638;50.050;21.124;2023-03-15T13:40:58;8.10;;;3.50;;
77524;SDS011;66638;50.050;21.124;2023-03-15T13:43:49;6.20;;;3.00;;
77524;SDS011;66638;50.050;21.124;2023-03-15T13:46:37;6.90;;;2.80;;
77524;SDS011;66638;50.050;21.124;2023-03-15T13:49:23;8.20;;;3.70;;
77524;SDS011;66638;50.050;21.124;2023-03-15T13:52:10;6.10;;;2.80;;
77524;SDS011;66638;50.050;21.124;2023-03-15T13:54:59;7.70;;;3.20;;
77524;SDS011;66638;50.050;21.124;2023-03-15T13:57:48;8.80;;;3.10;;
77524;SDS011;66638;50.050;21.124;2023-03-15T14:00:38;7.40;;;3.40;;
77524;SDS011;66638;50.050;21.124;2023-03-15T14:03:26;10.60;;;4.00;;
77524;SDS011;66638;50.050;21.124;2023-03-15T14:06:19;9.40;;;4.00;;
77524;SDS011;66638;50.050;21.124;2023-03-15T14:09:08;8.10;;;3.80;;
77524;SDS011;66638;50.050;21.124;2023-03-15T14:12:01;8.50;;;4.10;;
77524;SDS011;66638;50.050;21.124;2023-03-15T14:14:50;8.40;;;3.90;;
77524;SDS011;66638;50.050;21.124;2023-03-15T14:17:37;7.20;;;3.60;;
77524;SDS011;66638;50.050;21.124;2023-03-15T14:20:41;7.70;;;3.90;;
77524;SDS011;66638;50.050;21.124;2023-03-15T14:23:34;7.10;;;3.70;;
77524;SDS011;66638;50.050;21.124;2023-03-15T14:26:22;8.40;;;3.80;;
77524;SDS011;66638;50.050;21.124;2023-03-15T14:29:16;5.70;;;3.10;;
77524;SDS011;66638;50.050;21.124;2023-03-15T14:32:06;6.30;;;3.60;;
77524;SDS011;66638;50.050;21.124;2023-03-15T14:35:01;7.40;;;3.70;;
77524;SDS011;66638;50.050;21.124;2023-03-15T14:38:13;5.50;;;3.00;;
77524;SDS011;66638;50.050;21.124;2023-03-15T14:44:17;7.70;;;3.10;;
77524;SDS011;66638;50.050;21.124;2023-03-15T14:47:13;6.80;;;3.30;;
77524;SDS011;66638;50.050;21.124;2023-03-15T14:50:01;4.90;;;3.30;;
77524;SDS011;66638;50.050;21.124;2023-03-15T14:52:47;7.60;;;3.70;;
77524;SDS011;66638;50.050;21.124;2023-03-15T14:58:21;6.90;;;2.90;;
77524;SDS011;66638;50.050;21.124;2023-03-15T15:01:06;8.60;;;3.70;;
77524;SDS011;66638;50.050;21.124;2023-03-15T15:03:58;9.50;;;5.20;;
77524;SDS011;66638;50.050;21.124;2023-03-15T15:06:47;13.60;;;12.10;;
77524;SDS011;66638;50.050;21.124;2023-03-15T15:09:36;7.10;;;3.70;;
77524;SDS011;66638;50.050;21.124;2023-03-15T15:12:22;9.00;;;4.10;;
77524;SDS011;66638;50.050;21.124;2023-03-15T15:15:15;8.80;;;3.30;;
77524;SDS011;66638;50.050;21.124;2023-03-15T15:18:03;5.40;;;3.60;;
77524;SDS011;66638;50.050;21.124;2023-03-15T15:20:49;17.60;;;15.00;;
77524;SDS011;66638;50.050;21.124;2023-03-15T15:23:40;17.40;;;15.30;;
77524;SDS011;66638;50.050;21.124;2023-03-15T15:26:29;96.30;;;78.30;;
77524;SDS011;66638;50.050;21.124;2023-03-15T15:29:16;402.30;;;233.50;;
77524;SDS011;66638;50.050;21.124;2023-03-15T15:32:02;62.40;;;33.90;;
77524;SDS011;66638;50.050;21.124;2023-03-15T15:34:48;59.70;;;31.30;;
77524;SDS011;66638;50.050;21.124;2023-03-15T15:37:34;44.40;;;22.80;;
77524;SDS011;66638;50.050;21.124;2023-03-15T15:40:26;89.80;;;47.40;;
77524;SDS011;66638;50.050;21.124;2023-03-15T15:43:16;38.30;;;22.80;;
77524;SDS011;66638;50.050;21.124;2023-03-15T15:46:03;9.20;;;5.70;;
77524;SDS011;66638;50.050;21.124;2023-03-15T15:48:50;20.20;;;15.20;;
77524;SDS011;66638;50.050;21.124;2023-03-15T15:51:37;12.30;;;6.40;;
77524;SDS011;66638;50.050;21.124;2023-03-15T15:54:26;10.40;;;5.50;;
77524;SDS011;66638;50.050;21.124;2023-03-15T15:57:15;15.10;;;8.90;;
77524;SDS011;66638;50.050;21.124;2023-03-15T16:00:06;13.40;;;6.70;;
77524;SDS011;66638;50.050;21.124;2023-03-15T16:02:58;138.20;;;53.00;;
77524;SDS011;66638;50.050;21.124;2023-03-15T16:05:43;216.90;;;78.60;;
77524;SDS011;66638;50.050;21.124;2023-03-15T16:08:30;306.50;;;111.30;;
77524;SDS011;66638;50.050;21.124;2023-03-15T16:11:19;250.50;;;88.50;;
77524;SDS011;66638;50.050;21.124;2023-03-15T16:14:08;126.80;;;46.80;;
77524;SDS011;66638;50.050;21.124;2023-03-15T16:16:55;81.10;;;35.00;;
77524;SDS011;66638;50.050;21.124;2023-03-15T16:19:42;38.20;;;19.00;;
77524;SDS011;66638;50.050;21.124;2023-03-15T16:22:27;21.10;;;12.60;;
77524;SDS011;66638;50.050;21.124;2023-03-15T16:25:18;11.40;;;6.40;;
77524;SDS011;66638;50.050;21.124;2023-03-15T16:28:12;18.20;;;10.20;;
77524;SDS011;66638;50.050;21.124;2023-03-15T16:30:58;15.40;;;9.80;;
77524;SDS011;66638;50.050;21.124;2023-03-15T16:33:44;27.80;;;15.60;;
77524;SDS011;66638;50.050;21.124;2023-03-15T16:36:30;27.70;;;14.90;;
77524;SDS011;66638;50.050;21.124;2023-03-15T16:39:19;10.10;;;7.90;;
77524;SDS011;66638;50.050;21.124;2023-03-15T16:44:54;11.60;;;7.20;;
77524;SDS011;66638;50.050;21.124;2023-03-15T16:47:40;11.60;;;5.60;;
77524;SDS011;66638;50.050;21.124;2023-03-15T16:50:26;11.40;;;5.90;;
77524;SDS011;66638;50.050;21.124;2023-03-15T16:53:12;44.30;;;18.70;;
77524;SDS011;66638;50.050;21.124;2023-03-15T16:55:58;233.10;;;100.00;;
77524;SDS011;66638;50.050;21.124;2023-03-15T16:58:44;40.40;;;21.80;;
77524;SDS011;66638;50.050;21.124;2023-03-15T17:01:34;16.00;;;8.00;;
77524;SDS011;66638;50.050;21.124;2023-03-15T17:04:20;13.50;;;6.50;;
77524;SDS011;66638;50.050;21.124;2023-03-15T17:07:09;13.30;;;7.90;;
77524;SDS011;66638;50.050;21.124;2023-03-15T17:09:59;12.00;;;8.20;;
77524;SDS011;66638;50.050;21.124;2023-03-15T17:12:51;12.70;;;6.00;;
77524;SDS011;66638;50.050;21.124;2023-03-15T17:18:23;10.20;;;5.00;;
77524;SDS011;66638;50.050;21.124;2023-03-15T17:21:14;16.20;;;7.80;;
77524;SDS011;66638;50.050;21.124;2023-03-15T17:24:03;14.90;;;8.30;;
77524;SDS011;66638;50.050;21.124;2023-03-15T17:26:50;14.30;;;7.70;;
77524;SDS011;66638;50.050;21.124;2023-03-15T17:29:36;13.20;;;7.80;;
77524;SDS011;66638;50.050;21.124;2023-03-15T17:32:22;14.70;;;8.70;;
77524;SDS011;66638;50.050;21.124;2023-03-15T17:35:08;16.00;;;8.50;;
77524;SDS011;66638;50.050;21.124;2023-03-15T17:37:54;55.40;;;21.90;;
77524;SDS011;66638;50.050;21.124;2023-03-15T17:40:41;22.60;;;9.70;;
77524;SDS011;66638;50.050;21.124;2023-03-15T17:43:27;22.80;;;11.80;;
77524;SDS011;66638;50.050;21.124;2023-03-15T17:46:14;20.50;;;9.20;;
77524;SDS011;66638;50.050;21.124;2023-03-15T17:49:02;16.70;;;8.50;;
77524;SDS011;66638;50.050;21.124;2023-03-15T17:51:48;20.60;;;10.20;;
77524;SDS011;66638;50.050;21.124;2023-03-15T17:54:35;15.00;;;6.70;;
77524;SDS011;66638;50.050;21.124;2023-03-15T17:57:21;13.90;;;6.40;;
77524;SDS011;66638;50.050;21.124;2023-03-15T18:00:06;12.10;;;6.20;;
77524;SDS011;66638;50.050;21.124;2023-03-15T18:02:57;10.80;;;5.60;;
77524;SDS011;66638;50.050;21.124;2023-03-15T18:05:44;8.40;;;5.50;;
77524;SDS011;66638;50.050;21.124;2023-03-15T18:08:30;14.50;;;6.10;;
77524;SDS011;66638;50.050;21.124;2023-03-15T18:11:19;9.50;;;4.90;;
77524;SDS011;66638;50.050;21.124;2023-03-15T18:14:12;12.50;;;5.30;;
77524;SDS011;66638;50.050;21.124;2023-03-15T18:16:59;12.40;;;5.60;;
77524;SDS011;66638;50.050;21.124;2023-03-15T18:19:46;13.70;;;6.90;;
77524;SDS011;66638;50.050;21.124;2023-03-15T18:22:32;11.40;;;5.70;;
77524;SDS011;66638;50.050;21.124;2023-03-15T18:25:20;11.90;;;5.70;;
77524;SDS011;66638;50.050;21.124;2023-03-15T18:28:07;11.90;;;5.50;;
77524;SDS011;66638;50.050;21.124;2023-03-15T18:30:53;13.70;;;6.30;;
77524;SDS011;66638;50.050;21.124;2023-03-15T18:33:39;10.60;;;5.20;;
77524;SDS011;66638;50.050;21.124;2023-03-15T18:36:25;9.70;;;5.60;;
77524;SDS011;66638;50.050;21.124;2023-03-15T18:39:11;9.00;;;5.40;;